Главная страница
METAR-TAF:

METAR-TAF

Аэропорты :

Раротонга, Острова Кука

широта: 21-12S, долгота: 159-49W, высота над уровнем моря: 7 м

Текущие метеонаблюдения

Эта сводка был подготовлена 50 минут назад, в 09:00 UTC
Ветер 10 Узел от восточный с порывами до 20 Узел
Температура 27°C
Влажность 79%
Давление 1013 hPa
Видимость 10 км и более
Отдельные облака на высоте 1800 фута
Отдельные облака на высоте 29000 фута

METAR: NCRG 240900Z 08010G20KT 9999 SCT018 SCT290 27/23 Q1013

Время: 23:50 (09:50 UTC)

Прогноз

Эта сводка был подготовлена 4 часа и 34 минут назад, в 05:16 UTC
Прогноз действительный с 24-го 06 UTC до 25-го 06 UTC
Ветер 12 Узел от восточный
Видимость 10 км и более
небольшая облачность на высоте 1200 фута
Отдельные облака на высоте 4000 фута
небольшие ливневые дожди

TAF: NCRG 240516Z 2406/2506 08012KT 9999 -SHRA FEW012 SCT040

Метеонаблюдения и прогнозы для более 4000 аэропортов (сводки METAR и TAF).

Имеющиеся станции представлены на карте желтыми и красными точками.

Чтобы увидеть название станции, наведите на нее мышь.

Затем щелкните, чтобы увидеть метеонаблюдения и метеопрогнозы.

Управление картой: чтобы увеличить масштаб, щелкните зеленые кнопки с черным крестиком; чтобы уменьшить масштаб, щелкните зеленую кнопку с тире; для просмотра соседних карт щелкайте зеленые стрелки.


METAR-TAF: